sensor_id;sensor_type;location;lat;lon;timestamp;P1;durP1;ratioP1;P2;durP2;ratioP2
10005;SDS011;5042;42.626;23.382;2022-10-16T00:00:47;3.80;;;3.23;;
10005;SDS011;5042;42.626;23.382;2022-10-16T00:03:15;3.63;;;3.17;;
10005;SDS011;5042;42.626;23.382;2022-10-16T00:05:42;3.53;;;3.20;;
10005;SDS011;5042;42.626;23.382;2022-10-16T00:08:10;5.00;;;4.00;;
10005;SDS011;5042;42.626;23.382;2022-10-16T00:10:38;5.17;;;4.03;;
10005;SDS011;5042;42.626;23.382;2022-10-16T00:13:06;6.20;;;4.40;;
10005;SDS011;5042;42.626;23.382;2022-10-16T00:15:33;5.27;;;4.77;;
10005;SDS011;5042;42.626;23.382;2022-10-16T00:18:02;6.93;;;5.30;;
10005;SDS011;5042;42.626;23.382;2022-10-16T00:20:31;8.20;;;4.83;;
10005;SDS011;5042;42.626;23.382;2022-10-16T00:23:01;6.23;;;5.10;;
10005;SDS011;5042;42.626;23.382;2022-10-16T00:25:29;7.47;;;5.37;;
10005;SDS011;5042;42.626;23.382;2022-10-16T00:27:57;7.13;;;5.20;;
10005;SDS011;5042;42.626;23.382;2022-10-16T00:30:24;7.83;;;4.90;;
10005;SDS011;5042;42.626;23.382;2022-10-16T00:32:52;6.57;;;5.23;;
10005;SDS011;5042;42.626;23.382;2022-10-16T00:35:19;6.90;;;5.10;;
10005;SDS011;5042;42.626;23.382;2022-10-16T00:37:47;7.83;;;5.43;;
10005;SDS011;5042;42.626;23.382;2022-10-16T00:40:14;6.63;;;4.93;;
10005;SDS011;5042;42.626;23.382;2022-10-16T00:42:41;6.10;;;4.57;;
10005;SDS011;5042;42.626;23.382;2022-10-16T00:45:08;7.60;;;4.83;;
10005;SDS011;5042;42.626;23.382;2022-10-16T00:47:36;5.63;;;4.40;;
10005;SDS011;5042;42.626;23.382;2022-10-16T00:50:07;6.40;;;4.47;;
10005;SDS011;5042;42.626;23.382;2022-10-16T00:52:38;6.47;;;4.63;;
10005;SDS011;5042;42.626;23.382;2022-10-16T00:55:09;5.60;;;4.20;;
10005;SDS011;5042;42.626;23.382;2022-10-16T00:57:36;4.57;;;3.87;;
10005;SDS011;5042;42.626;23.382;2022-10-16T01:00:05;6.20;;;3.63;;
10005;SDS011;5042;42.626;23.382;2022-10-16T01:02:34;10.03;;;4.40;;
10005;SDS011;5042;42.626;23.382;2022-10-16T01:05:01;5.97;;;4.33;;
10005;SDS011;5042;42.626;23.382;2022-10-16T01:07:31;5.33;;;4.20;;
10005;SDS011;5042;42.626;23.382;2022-10-16T01:10:10;6.13;;;4.00;;
10005;SDS011;5042;42.626;23.382;2022-10-16T01:12:48;5.57;;;4.60;;
10005;SDS011;5042;42.626;23.382;2022-10-16T01:15:21;5.53;;;3.63;;
10005;SDS011;5042;42.626;23.382;2022-10-16T01:17:53;3.60;;;3.27;;
10005;SDS011;5042;42.626;23.382;2022-10-16T01:20:27;4.30;;;3.67;;
10005;SDS011;5042;42.626;23.382;2022-10-16T01:22:59;5.60;;;3.03;;
10005;SDS011;5042;42.626;23.382;2022-10-16T01:25:39;4.53;;;3.80;;
10005;SDS011;5042;42.626;23.382;2022-10-16T01:28:28;4.37;;;3.57;;
10005;SDS011;5042;42.626;23.382;2022-10-16T01:30:58;4.87;;;3.73;;
10005;SDS011;5042;42.626;23.382;2022-10-16T01:33:28;5.47;;;3.87;;
10005;SDS011;5042;42.626;23.382;2022-10-16T01:36:02;4.40;;;3.57;;
10005;SDS011;5042;42.626;23.382;2022-10-16T01:38:38;5.30;;;4.20;;
10005;SDS011;5042;42.626;23.382;2022-10-16T01:41:07;5.60;;;3.80;;
10005;SDS011;5042;42.626;23.382;2022-10-16T01:43:37;5.93;;;3.80;;
10005;SDS011;5042;42.626;23.382;2022-10-16T01:46:07;5.27;;;3.80;;
10005;SDS011;5042;42.626;23.382;2022-10-16T01:48:36;4.97;;;4.00;;
10005;SDS011;5042;42.626;23.382;2022-10-16T01:51:05;5.23;;;4.10;;
10005;SDS011;5042;42.626;23.382;2022-10-16T01:53:34;4.93;;;3.87;;
10005;SDS011;5042;42.626;23.382;2022-10-16T01:56:02;6.23;;;4.47;;
10005;SDS011;5042;42.626;23.382;2022-10-16T01:58:33;4.63;;;3.90;;
10005;SDS011;5042;42.626;23.382;2022-10-16T02:01:05;5.07;;;3.70;;
10005;SDS011;5042;42.626;23.382;2022-10-16T02:03:37;7.73;;;4.10;;
10005;SDS011;5042;42.626;23.382;2022-10-16T02:06:06;4.80;;;4.30;;
10005;SDS011;5042;42.626;23.382;2022-10-16T02:08:33;5.33;;;4.47;;
10005;SDS011;5042;42.626;23.382;2022-10-16T02:11:01;5.33;;;4.40;;
10005;SDS011;5042;42.626;23.382;2022-10-16T02:13:30;4.13;;;3.30;;
10005;SDS011;5042;42.626;23.382;2022-10-16T02:15:59;5.20;;;4.10;;
10005;SDS011;5042;42.626;23.382;2022-10-16T02:18:27;6.03;;;4.50;;
10005;SDS011;5042;42.626;23.382;2022-10-16T02:20:57;4.90;;;3.77;;
10005;SDS011;5042;42.626;23.382;2022-10-16T02:23:29;5.37;;;4.30;;
10005;SDS011;5042;42.626;23.382;2022-10-16T02:26:02;6.17;;;4.40;;
10005;SDS011;5042;42.626;23.382;2022-10-16T02:28:32;4.53;;;4.07;;
10005;SDS011;5042;42.626;23.382;2022-10-16T02:31:06;4.73;;;3.80;;
10005;SDS011;5042;42.626;23.382;2022-10-16T02:33:37;6.90;;;4.40;;
10005;SDS011;5042;42.626;23.382;2022-10-16T02:36:07;5.17;;;4.23;;
10005;SDS011;5042;42.626;23.382;2022-10-16T02:38:34;8.80;;;5.33;;
10005;SDS011;5042;42.626;23.382;2022-10-16T02:41:02;4.87;;;4.20;;
10005;SDS011;5042;42.626;23.382;2022-10-16T02:43:30;5.77;;;4.70;;
10005;SDS011;5042;42.626;23.382;2022-10-16T02:45:58;5.10;;;4.60;;
10005;SDS011;5042;42.626;23.382;2022-10-16T02:48:25;5.90;;;4.17;;
10005;SDS011;5042;42.626;23.382;2022-10-16T02:50:53;5.93;;;4.40;;
10005;SDS011;5042;42.626;23.382;2022-10-16T02:53:20;4.63;;;4.17;;
10005;SDS011;5042;42.626;23.382;2022-10-16T02:55:47;6.30;;;4.67;;
10005;SDS011;5042;42.626;23.382;2022-10-16T02:58:13;6.83;;;4.50;;
10005;SDS011;5042;42.626;23.382;2022-10-16T03:00:40;6.87;;;4.43;;
10005;SDS011;5042;42.626;23.382;2022-10-16T03:03:07;5.90;;;4.40;;
10005;SDS011;5042;42.626;23.382;2022-10-16T03:05:34;4.97;;;4.57;;
10005;SDS011;5042;42.626;23.382;2022-10-16T03:08:02;6.53;;;4.90;;
10005;SDS011;5042;42.626;23.382;2022-10-16T03:10:29;5.20;;;4.50;;
10005;SDS011;5042;42.626;23.382;2022-10-16T03:12:55;6.57;;;5.07;;
10005;SDS011;5042;42.626;23.382;2022-10-16T03:15:22;7.13;;;5.10;;
10005;SDS011;5042;42.626;23.382;2022-10-16T03:17:49;6.57;;;5.23;;
10005;SDS011;5042;42.626;23.382;2022-10-16T03:20:16;6.33;;;4.97;;
10005;SDS011;5042;42.626;23.382;2022-10-16T03:22:43;5.60;;;4.70;;
10005;SDS011;5042;42.626;23.382;2022-10-16T03:25:11;6.63;;;4.93;;
10005;SDS011;5042;42.626;23.382;2022-10-16T03:27:37;6.37;;;4.77;;
10005;SDS011;5042;42.626;23.382;2022-10-16T03:30:05;8.10;;;5.27;;
10005;SDS011;5042;42.626;23.382;2022-10-16T03:32:32;6.40;;;5.30;;
10005;SDS011;5042;42.626;23.382;2022-10-16T03:34:59;7.23;;;5.30;;
10005;SDS011;5042;42.626;23.382;2022-10-16T03:37:26;6.87;;;5.50;;
10005;SDS011;5042;42.626;23.382;2022-10-16T03:39:52;7.70;;;5.57;;
10005;SDS011;5042;42.626;23.382;2022-10-16T03:42:21;5.40;;;4.57;;
10005;SDS011;5042;42.626;23.382;2022-10-16T03:44:49;6.97;;;4.87;;
10005;SDS011;5042;42.626;23.382;2022-10-16T03:47:16;6.03;;;4.77;;
10005;SDS011;5042;42.626;23.382;2022-10-16T03:49:46;7.63;;;4.90;;
10005;SDS011;5042;42.626;23.382;2022-10-16T03:52:13;6.03;;;4.67;;
10005;SDS011;5042;42.626;23.382;2022-10-16T03:54:40;6.67;;;5.03;;
10005;SDS011;5042;42.626;23.382;2022-10-16T03:57:07;7.30;;;4.97;;
10005;SDS011;5042;42.626;23.382;2022-10-16T03:59:35;7.30;;;5.50;;
10005;SDS011;5042;42.626;23.382;2022-10-16T04:02:02;9.20;;;5.30;;
10005;SDS011;5042;42.626;23.382;2022-10-16T04:04:28;6.73;;;5.00;;
10005;SDS011;5042;42.626;23.382;2022-10-16T04:06:55;8.20;;;5.47;;
10005;SDS011;5042;42.626;23.382;2022-10-16T04:09:22;7.27;;;5.23;;
10005;SDS011;5042;42.626;23.382;2022-10-16T04:11:49;7.43;;;5.20;;
10005;SDS011;5042;42.626;23.382;2022-10-16T04:14:15;6.83;;;5.03;;
10005;SDS011;5042;42.626;23.382;2022-10-16T04:16:43;8.77;;;5.90;;
10005;SDS011;5042;42.626;23.382;2022-10-16T04:19:10;6.03;;;5.40;;
10005;SDS011;5042;42.626;23.382;2022-10-16T04:21:38;6.17;;;5.13;;
10005;SDS011;5042;42.626;23.382;2022-10-16T04:24:05;5.20;;;4.70;;
10005;SDS011;5042;42.626;23.382;2022-10-16T04:26:32;6.60;;;5.23;;
10005;SDS011;5042;42.626;23.382;2022-10-16T04:28:59;9.07;;;5.50;;
10005;SDS011;5042;42.626;23.382;2022-10-16T04:31:25;8.07;;;5.93;;
10005;SDS011;5042;42.626;23.382;2022-10-16T04:33:54;8.60;;;5.07;;
10005;SDS011;5042;42.626;23.382;2022-10-16T04:36:21;6.87;;;5.13;;
10005;SDS011;5042;42.626;23.382;2022-10-16T04:38:47;7.63;;;5.23;;
10005;SDS011;5042;42.626;23.382;2022-10-16T04:41:14;8.33;;;5.43;;
10005;SDS011;5042;42.626;23.382;2022-10-16T04:43:41;5.73;;;5.07;;
10005;SDS011;5042;42.626;23.382;2022-10-16T04:46:08;5.87;;;5.10;;
10005;SDS011;5042;42.626;23.382;2022-10-16T04:48:35;7.07;;;5.47;;
10005;SDS011;5042;42.626;23.382;2022-10-16T04:51:03;7.07;;;5.20;;
10005;SDS011;5042;42.626;23.382;2022-10-16T04:53:30;7.67;;;5.47;;
10005;SDS011;5042;42.626;23.382;2022-10-16T04:55:57;7.13;;;5.77;;
10005;SDS011;5042;42.626;23.382;2022-10-16T04:58:24;7.20;;;5.53;;
10005;SDS011;5042;42.626;23.382;2022-10-16T05:00:50;6.17;;;4.90;;
10005;SDS011;5042;42.626;23.382;2022-10-16T05:03:17;10.60;;;5.30;;
10005;SDS011;5042;42.626;23.382;2022-10-16T05:05:44;8.73;;;5.63;;
10005;SDS011;5042;42.626;23.382;2022-10-16T05:08:13;8.13;;;5.53;;
10005;SDS011;5042;42.626;23.382;2022-10-16T05:10:42;7.90;;;5.67;;
10005;SDS011;5042;42.626;23.382;2022-10-16T05:13:10;7.17;;;5.43;;
10005;SDS011;5042;42.626;23.382;2022-10-16T05:15:37;8.50;;;5.23;;
10005;SDS011;5042;42.626;23.382;2022-10-16T05:18:05;7.03;;;5.80;;
10005;SDS011;5042;42.626;23.382;2022-10-16T05:20:32;7.33;;;5.17;;
10005;SDS011;5042;42.626;23.382;2022-10-16T05:22:58;6.90;;;5.47;;
10005;SDS011;5042;42.626;23.382;2022-10-16T05:25:27;6.57;;;5.10;;
10005;SDS011;5042;42.626;23.382;2022-10-16T05:27:53;5.90;;;5.00;;
10005;SDS011;5042;42.626;23.382;2022-10-16T05:30:20;7.20;;;5.50;;
10005;SDS011;5042;42.626;23.382;2022-10-16T05:32:47;9.40;;;5.37;;
10005;SDS011;5042;42.626;23.382;2022-10-16T05:35:14;6.40;;;4.90;;
10005;SDS011;5042;42.626;23.382;2022-10-16T05:37:42;8.13;;;5.63;;
10005;SDS011;5042;42.626;23.382;2022-10-16T05:40:09;6.37;;;4.90;;
10005;SDS011;5042;42.626;23.382;2022-10-16T05:42:38;7.17;;;4.97;;
10005;SDS011;5042;42.626;23.382;2022-10-16T05:45:06;6.83;;;4.63;;
10005;SDS011;5042;42.626;23.382;2022-10-16T05:47:35;4.90;;;4.40;;
10005;SDS011;5042;42.626;23.382;2022-10-16T05:50:02;7.53;;;4.80;;
10005;SDS011;5042;42.626;23.382;2022-10-16T05:52:30;6.50;;;5.07;;
10005;SDS011;5042;42.626;23.382;2022-10-16T05:54:57;5.20;;;4.20;;
10005;SDS011;5042;42.626;23.382;2022-10-16T05:57:23;4.97;;;4.47;;
10005;SDS011;5042;42.626;23.382;2022-10-16T05:59:52;5.90;;;4.30;;
10005;SDS011;5042;42.626;23.382;2022-10-16T06:02:18;4.97;;;4.00;;
10005;SDS011;5042;42.626;23.382;2022-10-16T06:04:45;4.47;;;3.97;;
10005;SDS011;5042;42.626;23.382;2022-10-16T06:07:12;4.37;;;3.80;;
10005;SDS011;5042;42.626;23.382;2022-10-16T06:09:39;5.53;;;3.97;;
10005;SDS011;5042;42.626;23.382;2022-10-16T06:12:06;5.07;;;4.07;;
10005;SDS011;5042;42.626;23.382;2022-10-16T06:14:32;6.87;;;3.90;;
10005;SDS011;5042;42.626;23.382;2022-10-16T06:17:00;4.07;;;3.40;;
10005;SDS011;5042;42.626;23.382;2022-10-16T06:19:27;4.10;;;3.30;;
10005;SDS011;5042;42.626;23.382;2022-10-16T06:21:54;3.73;;;3.33;;
10005;SDS011;5042;42.626;23.382;2022-10-16T06:24:23;4.27;;;3.43;;
10005;SDS011;5042;42.626;23.382;2022-10-16T06:26:50;4.50;;;3.43;;
10005;SDS011;5042;42.626;23.382;2022-10-16T06:29:16;3.73;;;3.10;;
10005;SDS011;5042;42.626;23.382;2022-10-16T06:31:43;3.70;;;3.17;;
10005;SDS011;5042;42.626;23.382;2022-10-16T06:34:11;4.17;;;3.50;;
10005;SDS011;5042;42.626;23.382;2022-10-16T06:36:38;3.67;;;3.20;;
10005;SDS011;5042;42.626;23.382;2022-10-16T06:39:06;3.73;;;3.43;;
10005;SDS011;5042;42.626;23.382;2022-10-16T06:41:33;3.97;;;3.63;;
10005;SDS011;5042;42.626;23.382;2022-10-16T06:44:00;3.80;;;3.47;;
10005;SDS011;5042;42.626;23.382;2022-10-16T06:46:27;3.60;;;3.30;;
10005;SDS011;5042;42.626;23.382;2022-10-16T06:48:54;4.03;;;3.47;;
10005;SDS011;5042;42.626;23.382;2022-10-16T06:51:22;3.87;;;3.47;;
10005;SDS011;5042;42.626;23.382;2022-10-16T06:53:51;4.27;;;3.87;;
10005;SDS011;5042;42.626;23.382;2022-10-16T06:56:20;4.60;;;3.83;;
10005;SDS011;5042;42.626;23.382;2022-10-16T06:58:48;4.87;;;4.07;;
10005;SDS011;5042;42.626;23.382;2022-10-16T07:01:16;6.23;;;4.83;;
10005;SDS011;5042;42.626;23.382;2022-10-16T07:03:44;5.37;;;4.53;;
10005;SDS011;5042;42.626;23.382;2022-10-16T07:06:13;6.27;;;5.20;;
10005;SDS011;5042;42.626;23.382;2022-10-16T07:08:42;6.80;;;4.97;;
10005;SDS011;5042;42.626;23.382;2022-10-16T07:11:11;6.30;;;4.83;;
10005;SDS011;5042;42.626;23.382;2022-10-16T07:13:40;5.10;;;4.60;;
10005;SDS011;5042;42.626;23.382;2022-10-16T07:16:09;6.03;;;4.90;;
10005;SDS011;5042;42.626;23.382;2022-10-16T07:18:37;5.90;;;4.50;;
10005;SDS011;5042;42.626;23.382;2022-10-16T07:21:05;6.73;;;5.30;;
10005;SDS011;5042;42.626;23.382;2022-10-16T07:23:33;6.27;;;4.73;;
10005;SDS011;5042;42.626;23.382;2022-10-16T07:26:01;7.17;;;5.40;;
10005;SDS011;5042;42.626;23.382;2022-10-16T07:28:28;5.40;;;4.63;;
10005;SDS011;5042;42.626;23.382;2022-10-16T07:30:59;5.80;;;4.57;;
10005;SDS011;5042;42.626;23.382;2022-10-16T07:33:27;6.60;;;5.23;;
10005;SDS011;5042;42.626;23.382;2022-10-16T07:35:55;7.13;;;5.70;;
10005;SDS011;5042;42.626;23.382;2022-10-16T07:38:21;6.67;;;5.37;;
10005;SDS011;5042;42.626;23.382;2022-10-16T07:40:55;7.17;;;5.77;;
10005;SDS011;5042;42.626;23.382;2022-10-16T07:43:24;7.63;;;5.47;;
10005;SDS011;5042;42.626;23.382;2022-10-16T07:45:51;7.87;;;5.40;;
10005;SDS011;5042;42.626;23.382;2022-10-16T07:48:20;6.97;;;4.87;;
10005;SDS011;5042;42.626;23.382;2022-10-16T07:50:47;6.33;;;5.63;;
10005;SDS011;5042;42.626;23.382;2022-10-16T07:53:14;5.63;;;4.97;;
10005;SDS011;5042;42.626;23.382;2022-10-16T07:55:41;5.33;;;4.83;;
10005;SDS011;5042;42.626;23.382;2022-10-16T07:58:08;5.00;;;4.50;;
10005;SDS011;5042;42.626;23.382;2022-10-16T08:00:36;6.37;;;5.40;;
10005;SDS011;5042;42.626;23.382;2022-10-16T08:03:03;5.70;;;4.73;;
10005;SDS011;5042;42.626;23.382;2022-10-16T08:05:31;8.27;;;5.30;;
10005;SDS011;5042;42.626;23.382;2022-10-16T08:07:58;5.83;;;5.00;;
10005;SDS011;5042;42.626;23.382;2022-10-16T08:10:26;5.68;;;4.65;;
10005;SDS011;5042;42.626;23.382;2022-10-16T08:12:53;5.33;;;4.83;;
10005;SDS011;5042;42.626;23.382;2022-10-16T08:15:20;5.57;;;4.37;;
10005;SDS011;5042;42.626;23.382;2022-10-16T08:17:55;5.23;;;4.63;;
10005;SDS011;5042;42.626;23.382;2022-10-16T08:20:22;5.88;;;4.50;;
10005;SDS011;5042;42.626;23.382;2022-10-16T08:22:49;5.28;;;4.38;;
10005;SDS011;5042;42.626;23.382;2022-10-16T08:25:16;6.90;;;4.70;;
10005;SDS011;5042;42.626;23.382;2022-10-16T08:27:43;4.70;;;4.20;;
10005;SDS011;5042;42.626;23.382;2022-10-16T08:30:10;5.67;;;4.47;;
10005;SDS011;5042;42.626;23.382;2022-10-16T08:32:37;4.80;;;4.00;;
10005;SDS011;5042;42.626;23.382;2022-10-16T08:35:05;4.50;;;3.97;;
10005;SDS011;5042;42.626;23.382;2022-10-16T08:37:32;4.37;;;3.90;;
10005;SDS011;5042;42.626;23.382;2022-10-16T08:39:59;4.20;;;3.80;;
10005;SDS011;5042;42.626;23.382;2022-10-16T08:42:29;5.77;;;3.83;;
10005;SDS011;5042;42.626;23.382;2022-10-16T08:45:19;4.33;;;3.93;;
10005;SDS011;5042;42.626;23.382;2022-10-16T08:47:58;6.03;;;3.93;;
10005;SDS011;5042;42.626;23.382;2022-10-16T08:50:32;3.50;;;3.20;;
10005;SDS011;5042;42.626;23.382;2022-10-16T08:53:04;3.28;;;2.97;;
10005;SDS011;5042;42.626;23.382;2022-10-16T08:55:34;2.75;;;2.50;;
10005;SDS011;5042;42.626;23.382;2022-10-16T08:58:09;3.97;;;2.90;;
10005;SDS011;5042;42.626;23.382;2022-10-16T09:00:38;3.25;;;2.95;;
10005;SDS011;5042;42.626;23.382;2022-10-16T09:03:07;3.33;;;2.70;;
10005;SDS011;5042;42.626;23.382;2022-10-16T09:05:48;3.20;;;2.67;;
10005;SDS011;5042;42.626;23.382;2022-10-16T09:08:24;3.25;;;2.67;;
10005;SDS011;5042;42.626;23.382;2022-10-16T09:11:02;2.58;;;2.38;;
10005;SDS011;5042;42.626;23.382;2022-10-16T09:13:36;2.85;;;2.55;;
10005;SDS011;5042;42.626;23.382;2022-10-16T09:16:12;2.38;;;2.17;;
10005;SDS011;5042;42.626;23.382;2022-10-16T09:18:48;2.20;;;2.00;;
10005;SDS011;5042;42.626;23.382;2022-10-16T09:21:24;2.47;;;2.25;;
10005;SDS011;5042;42.626;23.382;2022-10-16T09:23:54;3.08;;;2.83;;
10005;SDS011;5042;42.626;23.382;2022-10-16T09:26:24;2.42;;;2.10;;
10005;SDS011;5042;42.626;23.382;2022-10-16T09:28:51;3.42;;;2.53;;
10005;SDS011;5042;42.626;23.382;2022-10-16T09:31:19;2.93;;;1.97;;
10005;SDS011;5042;42.626;23.382;2022-10-16T09:33:49;2.30;;;2.10;;
10005;SDS011;5042;42.626;23.382;2022-10-16T09:36:18;3.63;;;2.77;;
10005;SDS011;5042;42.626;23.382;2022-10-16T09:38:48;4.83;;;2.93;;
10005;SDS011;5042;42.626;23.382;2022-10-16T09:41:17;2.63;;;2.42;;
10005;SDS011;5042;42.626;23.382;2022-10-16T09:43:49;2.47;;;2.27;;
10005;SDS011;5042;42.626;23.382;2022-10-16T09:46:21;2.50;;;2.30;;
10005;SDS011;5042;42.626;23.382;2022-10-16T09:48:53;2.47;;;2.28;;
10005;SDS011;5042;42.626;23.382;2022-10-16T09:51:24;2.73;;;2.53;;
10005;SDS011;5042;42.626;23.382;2022-10-16T09:53:55;2.25;;;2.05;;
10005;SDS011;5042;42.626;23.382;2022-10-16T09:56:24;3.83;;;2.60;;
10005;SDS011;5042;42.626;23.382;2022-10-16T09:58:57;3.53;;;2.40;;
10005;SDS011;5042;42.626;23.382;2022-10-16T10:01:26;2.88;;;2.33;;
10005;SDS011;5042;42.626;23.382;2022-10-16T10:03:57;2.33;;;2.13;;
10005;SDS011;5042;42.626;23.382;2022-10-16T10:06:28;2.73;;;2.50;;
10005;SDS011;5042;42.626;23.382;2022-10-16T10:09:00;2.70;;;2.07;;
10005;SDS011;5042;42.626;23.382;2022-10-16T10:11:37;2.70;;;2.42;;
10005;SDS011;5042;42.626;23.382;2022-10-16T10:14:05;2.70;;;2.50;;
10005;SDS011;5042;42.626;23.382;2022-10-16T10:16:32;2.60;;;2.40;;
10005;SDS011;5042;42.626;23.382;2022-10-16T10:18:59;2.97;;;2.60;;
10005;SDS011;5042;42.626;23.382;2022-10-16T10:21:27;2.63;;;2.40;;
10005;SDS011;5042;42.626;23.382;2022-10-16T10:23:56;2.67;;;2.30;;
10005;SDS011;5042;42.626;23.382;2022-10-16T10:26:26;2.88;;;2.65;;
10005;SDS011;5042;42.626;23.382;2022-10-16T10:28:58;2.38;;;2.10;;
10005;SDS011;5042;42.626;23.382;2022-10-16T10:31:34;3.17;;;2.57;;
10005;SDS011;5042;42.626;23.382;2022-10-16T10:34:11;2.83;;;2.40;;
10005;SDS011;5042;42.626;23.382;2022-10-16T10:36:58;2.77;;;2.57;;
10005;SDS011;5042;42.626;23.382;2022-10-16T10:39:30;3.50;;;2.83;;
10005;SDS011;5042;42.626;23.382;2022-10-16T10:42:06;2.70;;;2.42;;
10005;SDS011;5042;42.626;23.382;2022-10-16T10:47:42;2.87;;;2.37;;
10005;SDS011;5042;42.626;23.382;2022-10-16T10:50:21;2.70;;;2.50;;
10005;SDS011;5042;42.626;23.382;2022-10-16T10:53:04;2.75;;;2.28;;
10005;SDS011;5042;42.626;23.382;2022-10-16T10:55:39;2.83;;;2.53;;
10005;SDS011;5042;42.626;23.382;2022-10-16T10:58:21;2.25;;;2.00;;
10005;SDS011;5042;42.626;23.382;2022-10-16T11:01:03;2.20;;;2.00;;
10005;SDS011;5042;42.626;23.382;2022-10-16T11:06:35;3.63;;;2.10;;
10005;SDS011;5042;42.626;23.382;2022-10-16T11:09:08;2.20;;;2.00;;
10005;SDS011;5042;42.626;23.382;2022-10-16T11:11:39;2.78;;;2.28;;
10005;SDS011;5042;42.626;23.382;2022-10-16T11:14:14;2.03;;;1.75;;
10005;SDS011;5042;42.626;23.382;2022-10-16T11:16:46;2.20;;;2.00;;
10005;SDS011;5042;42.626;23.382;2022-10-16T11:19:22;2.90;;;1.97;;
10005;SDS011;5042;42.626;23.382;2022-10-16T11:22:01;3.10;;;2.10;;
10005;SDS011;5042;42.626;23.382;2022-10-16T11:24:35;1.67;;;1.58;;
10005;SDS011;5042;42.626;23.382;2022-10-16T11:27:08;1.67;;;1.52;;
10005;SDS011;5042;42.626;23.382;2022-10-16T11:29:42;2.25;;;1.55;;
10005;SDS011;5042;42.626;23.382;2022-10-16T11:32:15;1.97;;;1.60;;
10005;SDS011;5042;42.626;23.382;2022-10-16T11:34:49;1.40;;;1.30;;
10005;SDS011;5042;42.626;23.382;2022-10-16T11:37:19;1.70;;;1.60;;
10005;SDS011;5042;42.626;23.382;2022-10-16T11:39:50;1.80;;;1.60;;
10005;SDS011;5042;42.626;23.382;2022-10-16T11:42:22;1.60;;;1.50;;
10005;SDS011;5042;42.626;23.382;2022-10-16T11:44:57;1.52;;;1.42;;
10005;SDS011;5042;42.626;23.382;2022-10-16T11:47:31;1.60;;;1.50;;
10005;SDS011;5042;42.626;23.382;2022-10-16T11:50:02;3.20;;;1.60;;
10005;SDS011;5042;42.626;23.382;2022-10-16T11:52:36;1.85;;;1.60;;
10005;SDS011;5042;42.626;23.382;2022-10-16T11:55:14;1.60;;;1.50;;
10005;SDS011;5042;42.626;23.382;2022-10-16T11:57:44;1.77;;;1.67;;
10005;SDS011;5042;42.626;23.382;2022-10-16T12:00:19;2.28;;;1.85;;
10005;SDS011;5042;42.626;23.382;2022-10-16T12:02:52;1.98;;;1.58;;
10005;SDS011;5042;42.626;23.382;2022-10-16T12:05:26;1.40;;;1.30;;
10005;SDS011;5042;42.626;23.382;2022-10-16T12:08:05;1.70;;;1.45;;
10005;SDS011;5042;42.626;23.382;2022-10-16T12:10:36;1.45;;;1.35;;
10005;SDS011;5042;42.626;23.382;2022-10-16T12:13:04;1.15;;;1.15;;
10005;SDS011;5042;42.626;23.382;2022-10-16T12:16:03;1.38;;;1.27;;
10005;SDS011;5042;42.626;23.382;2022-10-16T12:18:31;1.50;;;1.40;;
10005;SDS011;5042;42.626;23.382;2022-10-16T12:20:58;1.85;;;1.45;;
10005;SDS011;5042;42.626;23.382;2022-10-16T12:23:30;1.65;;;1.55;;
10005;SDS011;5042;42.626;23.382;2022-10-16T12:25:58;1.45;;;1.35;;
10005;SDS011;5042;42.626;23.382;2022-10-16T12:28:28;1.77;;;1.40;;
10005;SDS011;5042;42.626;23.382;2022-10-16T12:30:57;1.60;;;1.50;;
10005;SDS011;5042;42.626;23.382;2022-10-16T12:33:26;1.60;;;1.50;;
10005;SDS011;5042;42.626;23.382;2022-10-16T12:35:55;2.00;;;1.80;;
10005;SDS011;5042;42.626;23.382;2022-10-16T12:38:25;2.05;;;1.50;;
10005;SDS011;5042;42.626;23.382;2022-10-16T12:40:55;2.13;;;1.70;;
10005;SDS011;5042;42.626;23.382;2022-10-16T12:43:27;2.38;;;1.33;;
10005;SDS011;5042;42.626;23.382;2022-10-16T12:46:04;1.77;;;1.40;;
10005;SDS011;5042;42.626;23.382;2022-10-16T12:48:47;1.73;;;1.50;;
10005;SDS011;5042;42.626;23.382;2022-10-16T12:51:22;1.73;;;1.63;;
10005;SDS011;5042;42.626;23.382;2022-10-16T12:54:00;1.65;;;1.50;;
10005;SDS011;5042;42.626;23.382;2022-10-16T12:56:29;2.47;;;1.67;;
10005;SDS011;5042;42.626;23.382;2022-10-16T12:59:08;1.67;;;1.30;;
10005;SDS011;5042;42.626;23.382;2022-10-16T13:01:45;1.67;;;1.58;;
10005;SDS011;5042;42.626;23.382;2022-10-16T13:04:32;1.50;;;1.40;;
10005;SDS011;5042;42.626;23.382;2022-10-16T13:07:24;1.50;;;1.40;;
10005;SDS011;5042;42.626;23.382;2022-10-16T13:10:08;1.50;;;1.40;;
10005;SDS011;5042;42.626;23.382;2022-10-16T13:12:50;1.60;;;1.50;;
10005;SDS011;5042;42.626;23.382;2022-10-16T13:15:40;1.70;;;1.60;;
10005;SDS011;5042;42.626;23.382;2022-10-16T13:18:26;1.27;;;1.27;;
10005;SDS011;5042;42.626;23.382;2022-10-16T13:21:02;1.70;;;1.60;;
10005;SDS011;5042;42.626;23.382;2022-10-16T13:23:36;1.70;;;1.60;;
10005;SDS011;5042;42.626;23.382;2022-10-16T13:26:15;1.65;;;1.55;;
10005;SDS011;5042;42.626;23.382;2022-10-16T13:28:49;1.75;;;1.65;;
10005;SDS011;5042;42.626;23.382;2022-10-16T13:31:17;1.65;;;1.55;;
10005;SDS011;5042;42.626;23.382;2022-10-16T13:33:47;1.65;;;1.50;;
10005;SDS011;5042;42.626;23.382;2022-10-16T13:36:21;1.77;;;1.67;;
10005;SDS011;5042;42.626;23.382;2022-10-16T13:38:58;2.17;;;1.65;;
10005;SDS011;5042;42.626;23.382;2022-10-16T13:41:30;2.28;;;1.48;;
10005;SDS011;5042;42.626;23.382;2022-10-16T13:43:56;1.90;;;1.67;;
10005;SDS011;5042;42.626;23.382;2022-10-16T13:46:24;1.17;;;1.17;;
10005;SDS011;5042;42.626;23.382;2022-10-16T13:48:59;2.55;;;1.80;;
10005;SDS011;5042;42.626;23.382;2022-10-16T13:51:27;1.42;;;1.33;;
10005;SDS011;5042;42.626;23.382;2022-10-16T13:53:56;1.75;;;1.65;;
10005;SDS011;5042;42.626;23.382;2022-10-16T13:56:25;1.63;;;1.52;;
10005;SDS011;5042;42.626;23.382;2022-10-16T13:59:00;1.40;;;1.30;;
10005;SDS011;5042;42.626;23.382;2022-10-16T14:01:28;1.52;;;1.33;;
10005;SDS011;5042;42.626;23.382;2022-10-16T14:04:02;1.60;;;1.50;;
10005;SDS011;5042;42.626;23.382;2022-10-16T14:06:30;1.67;;;1.58;;
10005;SDS011;5042;42.626;23.382;2022-10-16T14:08:59;2.63;;;1.75;;
10005;SDS011;5042;42.626;23.382;2022-10-16T14:11:28;1.95;;;1.85;;
10005;SDS011;5042;42.626;23.382;2022-10-16T14:13:55;1.50;;;1.40;;
10005;SDS011;5042;42.626;23.382;2022-10-16T14:16:23;1.67;;;1.50;;
10005;SDS011;5042;42.626;23.382;2022-10-16T14:18:55;1.52;;;1.42;;
10005;SDS011;5042;42.626;23.382;2022-10-16T14:21:25;1.48;;;1.38;;
10005;SDS011;5042;42.626;23.382;2022-10-16T14:23:52;1.65;;;1.55;;
10005;SDS011;5042;42.626;23.382;2022-10-16T14:26:20;1.80;;;1.40;;
10005;SDS011;5042;42.626;23.382;2022-10-16T14:29:00;3.33;;;1.77;;
10005;SDS011;5042;42.626;23.382;2022-10-16T14:31:30;1.92;;;1.80;;
10005;SDS011;5042;42.626;23.382;2022-10-16T14:33:58;1.55;;;1.45;;
10005;SDS011;5042;42.626;23.382;2022-10-16T14:36:27;2.42;;;1.38;;
10005;SDS011;5042;42.626;23.382;2022-10-16T14:38:57;1.40;;;1.30;;
10005;SDS011;5042;42.626;23.382;2022-10-16T14:41:27;1.70;;;1.60;;
10005;SDS011;5042;42.626;23.382;2022-10-16T14:43:55;1.60;;;1.50;;
10005;SDS011;5042;42.626;23.382;2022-10-16T14:46:28;1.40;;;1.33;;
10005;SDS011;5042;42.626;23.382;2022-10-16T14:49:00;2.00;;;1.80;;
10005;SDS011;5042;42.626;23.382;2022-10-16T14:51:31;2.65;;;1.73;;
10005;SDS011;5042;42.626;23.382;2022-10-16T14:53:58;2.30;;;1.70;;
10005;SDS011;5042;42.626;23.382;2022-10-16T14:56:25;1.52;;;1.42;;
10005;SDS011;5042;42.626;23.382;2022-10-16T14:58:55;1.75;;;1.55;;
10005;SDS011;5042;42.626;23.382;2022-10-16T15:01:22;2.35;;;1.75;;
10005;SDS011;5042;42.626;23.382;2022-10-16T15:03:49;2.08;;;1.52;;
10005;SDS011;5042;42.626;23.382;2022-10-16T15:06:17;2.60;;;1.80;;
10005;SDS011;5042;42.626;23.382;2022-10-16T15:08:46;1.95;;;1.70;;
10005;SDS011;5042;42.626;23.382;2022-10-16T15:11:13;2.83;;;1.70;;